Time;durP1;ratioP1;P1;durP2;ratioP2;P2;SDS_P1;SDS_P2;PMS_P1;PMS_P2;Temp;Humidity;BMP_temperature;BMP_pressure;BME280_temperature;BME280_humidity;BME280_pressure;Samples;Min_cycle;Max_cycle;Signal;HPM_P1;HPM_P2
2022/12/09 00:01:47;;;;;;;21.20;12.75;;;1.50;99.90;;;;;;4378728;28;10000518;-72
2022/12/09 00:04:13;;;;;;;22.90;13.15;;;1.50;99.90;;;;;;5076423;28;20048;-71
2022/12/09 00:06:39;;;;;;;22.65;13.25;;;1.50;99.90;;;;;;5079845;28;20012;-71
2022/12/09 00:09:04;;;;;;;19.88;12.38;;;1.60;99.90;;;;;;5087874;28;20016;-71
2022/12/09 00:11:30;;;;;;;23.20;12.32;;;1.50;99.90;;;;;;5079884;28;20020;-71
2022/12/09 00:13:57;;;;;;;20.23;12.23;;;1.50;99.90;;;;;;5073773;28;20028;-72
2022/12/09 00:16:24;;;;;;;18.67;11.68;;;1.50;99.90;;;;;;5078104;28;20051;-71
2022/12/09 00:18:50;;;;;;;19.02;11.90;;;1.50;99.90;;;;;;5077764;28;21313;-72
2022/12/09 00:21:21;;;;;;;17.75;11.88;;;1.50;99.90;;;;;;5077333;28;20041;-72
2022/12/09 00:23:48;;;;;;;16.98;11.13;;;1.50;99.90;;;;;;5074801;28;20036;-72
2022/12/09 00:26:14;;;;;;;19.45;11.57;;;1.40;99.90;;;;;;5085359;28;20525;-71
2022/12/09 00:28:40;;;;;;;18.92;12.13;;;1.40;99.90;;;;;;5080139;28;20773;-72
2022/12/09 00:31:07;;;;;;;19.90;12.18;;;1.30;99.90;;;;;;5081171;28;20059;-71
2022/12/09 00:33:34;;;;;;;17.73;11.85;;;1.30;99.90;;;;;;5078079;28;20446;-72
2022/12/09 00:36:08;;;;;;;18.48;11.35;;;1.30;99.90;;;;;;5080847;28;20055;-72
2022/12/09 00:38:34;;;;;;;19.40;11.75;;;1.30;99.90;;;;;;5082078;28;21242;-71
2022/12/09 00:41:00;;;;;;;18.42;11.52;;;1.30;99.90;;;;;;5080911;28;20043;-71
2022/12/09 00:43:25;;;;;;;16.08;11.02;;;1.30;99.90;;;;;;5079449;28;20033;-71
2022/12/09 00:45:51;;;;;;;16.23;11.13;;;1.30;99.90;;;;;;5082379;28;20020;-71
2022/12/09 00:48:17;;;;;;;20.20;12.10;;;1.40;99.90;;;;;;5086633;28;20074;-71
2022/12/09 00:50:44;;;;;;;21.17;12.35;;;1.40;99.90;;;;;;5084569;28;20024;-71
2022/12/09 00:53:10;;;;;;;20.08;12.30;;;1.40;99.90;;;;;;5076113;28;20081;-71
2022/12/09 00:55:35;;;;;;;26.05;12.70;;;1.40;99.90;;;;;;5078407;28;20036;-71
2022/12/09 00:58:01;;;;;;;19.95;12.65;;;1.40;99.90;;;;;;5076428;28;20051;-71
2022/12/09 01:00:27;;;;;;;22.17;12.23;;;1.50;99.90;;;;;;5077463;28;20062;-71
2022/12/09 01:02:53;;;;;;;20.52;11.88;;;1.50;99.90;;;;;;5079702;28;20072;-71
2022/12/09 01:05:18;;;;;;;22.50;12.25;;;1.50;99.90;;;;;;5073595;28;20111;-71
2022/12/09 01:07:44;;;;;;;19.00;12.60;;;1.50;99.90;;;;;;5076769;28;20020;-71
2022/12/09 01:10:10;;;;;;;21.02;11.93;;;1.50;99.90;;;;;;5073452;28;20047;-71
2022/12/09 01:12:36;;;;;;;19.13;11.70;;;1.50;99.90;;;;;;5077822;28;20093;-71
2022/12/09 01:15:02;;;;;;;17.95;12.40;;;1.60;99.90;;;;;;5077658;28;20279;-71
2022/12/09 01:17:27;;;;;;;18.00;11.88;;;1.60;99.90;;;;;;5080107;28;20123;-71
2022/12/09 01:19:53;;;;;;;19.45;12.07;;;1.50;99.90;;;;;;5074659;28;20035;-71
2022/12/09 01:22:18;;;;;;;18.40;12.30;;;1.50;99.90;;;;;;5079439;28;20490;-72
2022/12/09 01:24:44;;;;;;;21.38;12.38;;;1.50;99.90;;;;;;5077731;28;20089;-71
2022/12/09 01:27:09;;;;;;;18.23;11.77;;;1.50;99.90;;;;;;5076060;28;20020;-71
2022/12/09 01:29:35;;;;;;;20.45;12.30;;;1.50;99.90;;;;;;5082080;28;20027;-71
2022/12/09 01:32:01;;;;;;;18.05;12.02;;;1.60;99.90;;;;;;5072546;28;20036;-71
2022/12/09 01:34:26;;;;;;;17.55;11.50;;;1.60;99.90;;;;;;5073960;28;20023;-72
2022/12/09 01:36:52;;;;;;;20.55;12.55;;;1.60;99.90;;;;;;5083061;28;20103;-71
2022/12/09 01:39:17;;;;;;;20.17;13.73;;;1.60;99.90;;;;;;5075718;28;20634;-71
2022/12/09 01:41:44;;;;;;;20.50;13.90;;;1.60;99.90;;;;;;5080007;28;20016;-71
2022/12/09 01:44:10;;;;;;;21.67;13.23;;;1.60;99.90;;;;;;5074185;28;20394;-72
2022/12/09 01:46:35;;;;;;;17.40;12.35;;;1.60;99.90;;;;;;5076265;28;20039;-72
2022/12/09 01:49:01;;;;;;;18.73;12.32;;;1.60;99.90;;;;;;5071721;28;20078;-71
2022/12/09 01:51:27;;;;;;;17.92;12.00;;;1.60;99.90;;;;;;5075059;28;20020;-71
2022/12/09 01:53:53;;;;;;;18.45;12.43;;;1.60;99.90;;;;;;5071953;28;20035;-71
2022/12/09 01:56:29;;;;;;;20.30;12.40;;;1.60;99.90;;;;;;5073701;28;20405;-71
2022/12/09 01:59:00;;;;;;;20.20;12.15;;;1.60;99.90;;;;;;5075850;28;20028;-71
2022/12/09 02:01:26;;;;;;;20.98;12.57;;;1.60;99.90;;;;;;5076345;28;20096;-71
2022/12/09 02:03:52;;;;;;;19.05;12.20;;;1.70;99.90;;;;;;5074677;28;20035;-71
2022/12/09 02:06:17;;;;;;;19.15;12.07;;;1.70;99.90;;;;;;5067803;28;20016;-71
2022/12/09 02:08:44;;;;;;;21.63;12.45;;;1.60;99.90;;;;;;5081374;28;20067;-71
2022/12/09 02:11:25;;;;;;;23.00;12.20;;;1.70;99.90;;;;;;5080900;28;20024;-71
2022/12/09 02:13:59;;;;;;;18.67;12.20;;;1.70;99.90;;;;;;5073859;28;20050;-71
2022/12/09 02:16:29;;;;;;;19.67;11.93;;;1.60;99.90;;;;;;5080820;28;20089;-71
2022/12/09 02:18:54;;;;;;;17.00;11.23;;;1.60;99.90;;;;;;5082056;28;20440;-71
2022/12/09 02:21:49;;;;;;;16.70;11.35;;;1.60;99.90;;;;;;5078712;28;20031;-71
2022/12/09 02:24:40;;;;;;;18.52;11.80;;;1.60;99.90;;;;;;5070715;28;20152;-71
2022/12/09 02:27:27;;;;;;;18.60;11.73;;;1.50;99.90;;;;;;5077615;28;20029;-71
2022/12/09 02:30:07;;;;;;;16.95;11.13;;;1.50;99.90;;;;;;5077812;28;20177;-71
2022/12/09 02:33:07;;;;;;;14.55;10.55;;;1.40;99.90;;;;;;5071082;28;20506;-71
2022/12/09 02:36:01;;;;;;;17.10;10.73;;;1.40;99.90;;;;;;5077228;28;20070;-71
2022/12/09 02:38:30;;;;;;;16.27;10.65;;;1.30;99.90;;;;;;5082695;28;21492;-71
2022/12/09 02:41:05;;;;;;;15.48;10.85;;;1.30;99.90;;;;;;5077344;28;20183;-71
2022/12/09 02:43:36;;;;;;;15.88;10.80;;;1.20;99.90;;;;;;5075997;28;20353;-71
2022/12/09 02:46:04;;;;;;;15.20;10.52;;;1.20;99.90;;;;;;5074373;28;20073;-71
2022/12/09 02:48:37;;;;;;;15.77;10.82;;;1.10;99.90;;;;;;5077772;28;20012;-71
2022/12/09 02:51:06;;;;;;;16.55;10.95;;;1.10;99.90;;;;;;5071696;28;20028;-71
2022/12/09 02:53:34;;;;;;;17.98;11.98;;;1.10;99.90;;;;;;5077799;28;20461;-71
2022/12/09 02:56:01;;;;;;;21.38;12.93;;;1.00;99.90;;;;;;5081983;28;20097;-72
2022/12/09 02:58:27;;;;;;;22.38;13.48;;;1.00;99.90;;;;;;5082634;28;20032;-72
2022/12/09 03:00:55;;;;;;;24.00;13.75;;;1.00;99.90;;;;;;5078830;28;20032;-72
2022/12/09 03:03:20;;;;;;;21.30;12.95;;;1.00;99.90;;;;;;5079520;28;20036;-71
2022/12/09 03:05:59;;;;;;;19.88;12.10;;;1.00;99.90;;;;;;5076309;28;20027;-72
2022/12/09 03:08:50;;;;;;;20.15;12.85;;;1.00;99.90;;;;;;5077217;28;20037;-71
2022/12/09 03:11:18;;;;;;;22.63;13.43;;;1.00;99.90;;;;;;5078214;28;20056;-71
2022/12/09 03:13:52;;;;;;;18.42;11.95;;;1.00;99.90;;;;;;5076458;28;20059;-71
2022/12/09 03:16:43;;;;;;;20.48;13.68;;;1.00;99.90;;;;;;5076716;28;20028;-71
2022/12/09 03:19:15;;;;;;;20.92;13.15;;;1.00;99.90;;;;;;5076940;28;20028;-72
2022/12/09 03:21:45;;;;;;;16.83;9.98;;;0.90;99.90;;;;;;5079113;28;20043;-71
2022/12/09 03:24:16;;;;;;;22.77;13.27;;;0.90;99.90;;;;;;5078937;28;20631;-71
2022/12/09 03:26:42;;;;;;;20.58;13.05;;;0.90;99.90;;;;;;5080678;28;20048;-71
2022/12/09 03:29:16;;;;;;;17.77;11.75;;;0.90;99.90;;;;;;5080260;28;20020;-71
2022/12/09 03:31:44;;;;;;;17.90;11.82;;;0.80;99.90;;;;;;5086582;28;20058;-71
2022/12/09 03:34:15;;;;;;;17.58;11.52;;;0.80;99.90;;;;;;5077009;28;20057;-71
2022/12/09 03:36:43;;;;;;;18.10;11.73;;;0.80;99.90;;;;;;5077333;28;20020;-72
2022/12/09 03:39:13;;;;;;;16.95;11.35;;;0.70;99.90;;;;;;5081950;28;20020;-72
2022/12/09 03:41:44;;;;;;;18.00;11.52;;;0.70;99.90;;;;;;5083327;28;20042;-72
2022/12/09 03:44:19;;;;;;;17.75;11.85;;;0.70;99.90;;;;;;5080488;28;20494;-71
2022/12/09 03:46:45;;;;;;;19.08;12.45;;;0.70;99.90;;;;;;5079772;28;20028;-72
2022/12/09 03:49:11;;;;;;;18.00;11.98;;;0.70;99.90;;;;;;5086541;28;20141;-72
2022/12/09 03:51:55;;;;;;;18.15;11.85;;;0.70;99.90;;;;;;5087097;28;20032;-71
2022/12/09 03:54:42;;;;;;;17.88;11.70;;;0.60;99.90;;;;;;5071387;28;20270;-72
2022/12/09 03:57:10;;;;;;;19.40;11.80;;;0.70;99.90;;;;;;5081041;28;20047;-72
2022/12/09 03:59:37;;;;;;;15.90;11.02;;;0.70;99.90;;;;;;5079365;28;20028;-72
2022/12/09 04:02:05;;;;;;;16.17;10.55;;;0.60;99.90;;;;;;5078763;28;20040;-71
2022/12/09 04:04:31;;;;;;;18.45;11.25;;;0.60;99.90;;;;;;5079600;28;20302;-71
2022/12/09 04:06:57;;;;;;;16.08;10.80;;;0.60;99.90;;;;;;5078031;28;20016;-72
2022/12/09 04:09:23;;;;;;;16.92;10.70;;;0.60;99.90;;;;;;5086216;28;20032;-72
2022/12/09 04:11:49;;;;;;;18.05;11.20;;;0.60;99.90;;;;;;5080481;28;20020;-72
2022/12/09 04:14:15;;;;;;;17.58;11.25;;;0.60;99.90;;;;;;5078304;28;20071;-72
2022/12/09 04:16:40;;;;;;;20.13;13.07;;;0.60;99.90;;;;;;5083367;28;20062;-72
2022/12/09 04:19:06;;;;;;;21.35;12.68;;;0.60;99.90;;;;;;5082229;28;20027;-72
2022/12/09 04:21:32;;;;;;;18.73;12.65;;;0.60;99.90;;;;;;5077776;28;20356;-72
2022/12/09 04:23:57;;;;;;;19.10;12.30;;;0.60;99.90;;;;;;5081701;28;20024;-72
2022/12/09 04:26:23;;;;;;;20.00;12.55;;;0.60;99.90;;;;;;5078892;28;20504;-72
2022/12/09 04:28:49;;;;;;;19.77;12.73;;;0.60;99.90;;;;;;5082154;28;20024;-71
2022/12/09 04:31:16;;;;;;;19.25;12.93;;;0.70;99.90;;;;;;5083031;28;20129;-71
2022/12/09 04:33:43;;;;;;;20.17;12.38;;;0.70;99.90;;;;;;5072938;28;20028;-71
2022/12/09 04:36:11;;;;;;;19.92;12.45;;;0.70;99.90;;;;;;5074722;28;20020;-71
2022/12/09 04:38:37;;;;;;;18.23;11.98;;;0.70;99.90;;;;;;5083020;28;20455;-71
2022/12/09 04:41:03;;;;;;;19.55;12.07;;;0.60;99.90;;;;;;5083398;28;20103;-71
2022/12/09 04:43:29;;;;;;;21.02;12.65;;;0.60;99.90;;;;;;5076122;28;20499;-71
2022/12/09 04:46:00;;;;;;;24.90;13.73;;;0.60;99.90;;;;;;5075385;28;20078;-71
2022/12/09 04:48:26;;;;;;;23.77;14.55;;;0.50;99.90;;;;;;5084395;28;20482;-71
2022/12/09 04:50:52;;;;;;;23.55;14.38;;;0.50;99.90;;;;;;5081118;28;20024;-71
2022/12/09 04:53:17;;;;;;;24.15;14.25;;;0.50;99.90;;;;;;5082382;28;20027;-71
2022/12/09 04:55:43;;;;;;;24.20;13.80;;;0.40;99.90;;;;;;5075340;28;20533;-71
2022/12/09 04:58:08;;;;;;;22.75;14.05;;;0.50;99.90;;;;;;5086197;28;20375;-71
2022/12/09 05:00:34;;;;;;;26.88;15.18;;;0.50;99.90;;;;;;5082830;28;20032;-71
2022/12/09 05:03:00;;;;;;;25.23;14.80;;;0.50;99.90;;;;;;5078092;28;20039;-72
2022/12/09 05:05:25;;;;;;;23.02;13.98;;;0.60;99.90;;;;;;5078384;28;20404;-71
2022/12/09 05:07:51;;;;;;;21.55;13.57;;;0.70;99.90;;;;;;5071890;28;20021;-72
2022/12/09 05:10:17;;;;;;;23.20;14.02;;;0.70;99.90;;;;;;5078621;28;20035;-71
2022/12/09 05:12:42;;;;;;;25.33;13.93;;;0.70;99.90;;;;;;5081811;28;20066;-71
2022/12/09 05:15:08;;;;;;;24.30;13.77;;;0.60;99.90;;;;;;5080249;28;20277;-71
2022/12/09 05:17:34;;;;;;;21.52;13.60;;;0.60;99.90;;;;;;5078540;28;20113;-71
2022/12/09 05:20:00;;;;;;;23.48;13.57;;;0.60;99.90;;;;;;5075575;28;20518;-71
2022/12/09 05:22:25;;;;;;;23.38;13.93;;;0.60;99.90;;;;;;5081840;28;20394;-71
2022/12/09 05:24:51;;;;;;;22.98;13.77;;;0.60;99.90;;;;;;5078773;28;20024;-71
2022/12/09 05:27:16;;;;;;;20.55;13.38;;;0.60;99.90;;;;;;5076670;28;20020;-71
2022/12/09 05:29:42;;;;;;;19.80;12.18;;;0.60;99.90;;;;;;5078295;28;20024;-72
2022/12/09 05:32:08;;;;;;;18.35;11.88;;;0.60;99.90;;;;;;5080537;28;20338;-71
2022/12/09 05:34:34;;;;;;;19.00;11.65;;;0.50;99.90;;;;;;5084115;28;20461;-72
2022/12/09 05:36:59;;;;;;;19.70;12.30;;;0.50;99.90;;;;;;5079057;28;20038;-72
2022/12/09 05:39:25;;;;;;;20.13;12.00;;;0.50;99.90;;;;;;5085083;28;20049;-72
2022/12/09 05:41:51;;;;;;;22.20;13.05;;;0.40;99.90;;;;;;5085960;28;20032;-72
2022/12/09 05:44:16;;;;;;;21.38;12.85;;;0.40;99.90;;;;;;5079002;28;20036;-71
2022/12/09 05:46:42;;;;;;;21.30;12.85;;;0.50;99.90;;;;;;5076756;28;20024;-71
2022/12/09 05:49:08;;;;;;;19.88;12.63;;;0.50;99.90;;;;;;5081117;28;20490;-71
2022/12/09 05:51:33;;;;;;;20.90;12.18;;;0.50;99.90;;;;;;5077351;28;20423;-71
2022/12/09 05:54:01;;;;;;;20.83;12.40;;;0.40;99.90;;;;;;5075219;28;20141;-71
2022/12/09 05:56:27;;;;;;;20.20;13.20;;;0.40;99.90;;;;;;5073265;28;20032;-70
2022/12/09 05:58:53;;;;;;;22.50;13.35;;;0.40;99.90;;;;;;5076181;28;20038;-71
2022/12/09 06:01:19;;;;;;;21.83;13.70;;;0.30;99.90;;;;;;5077727;28;20928;-71
2022/12/09 06:03:46;;;;;;;23.25;14.20;;;0.20;99.90;;;;;;5073812;28;20107;-71
2022/12/09 06:06:14;;;;;;;23.88;14.15;;;0.20;99.90;;;;;;5080611;28;20037;-71
2022/12/09 06:08:42;;;;;;;21.58;13.57;;;0.30;99.90;;;;;;5076315;28;20066;-71
2022/12/09 06:11:14;;;;;;;21.55;12.85;;;0.20;99.90;;;;;;5084925;28;20599;-71
2022/12/09 06:13:40;;;;;;;22.45;13.18;;;0.20;99.90;;;;;;5078388;28;20077;-71
2022/12/09 06:16:07;;;;;;;22.70;12.93;;;0.10;99.90;;;;;;5078367;28;20517;-71
2022/12/09 06:18:33;;;;;;;19.52;12.02;;;0.10;99.90;;;;;;5080988;28;20032;-71
2022/12/09 06:20:58;;;;;;;20.55;12.13;;;0.00;99.90;;;;;;5081370;28;20028;-71
2022/12/09 06:23:25;;;;;;;20.90;12.80;;;0.00;99.90;;;;;;5071593;28;20028;-71
2022/12/09 06:25:50;;;;;;;20.27;12.45;;;-0.10;99.90;;;;;;5077780;28;20486;-71
2022/12/09 06:28:18;;;;;;;20.73;13.30;;;-0.10;99.90;;;;;;5077617;28;20051;-72
2022/12/09 06:30:43;;;;;;;18.90;12.60;;;-0.10;99.90;;;;;;5079703;28;20483;-71
2022/12/09 06:33:09;;;;;;;21.60;13.13;;;-0.10;99.90;;;;;;5071203;28;20039;-72
2022/12/09 06:35:34;;;;;;;20.30;12.77;;;-0.20;99.90;;;;;;5074815;28;20032;-71
2022/12/09 06:38:00;;;;;;;19.35;11.63;;;-0.20;99.90;;;;;;5077836;28;20036;-72
2022/12/09 06:40:26;;;;;;;18.92;12.00;;;-0.30;99.90;;;;;;5076372;28;20216;-72
2022/12/09 06:42:52;;;;;;;18.83;12.23;;;-0.30;99.90;;;;;;5076986;28;20036;-72
2022/12/09 06:45:18;;;;;;;20.10;12.68;;;-0.30;99.90;;;;;;5065698;28;20045;-71
2022/12/09 06:47:45;;;;;;;21.52;13.02;;;-0.30;99.90;;;;;;5057926;28;20028;-72
2022/12/09 06:50:11;;;;;;;18.67;12.10;;;-0.30;99.90;;;;;;5053880;28;20482;-71
2022/12/09 06:52:38;;;;;;;18.20;11.73;;;-0.30;99.90;;;;;;5050823;28;20025;-71
2022/12/09 06:55:04;;;;;;;22.23;13.45;;;-0.30;99.90;;;;;;5048403;28;20033;-71
2022/12/09 06:57:30;;;;;;;21.85;13.32;;;-0.30;99.90;;;;;;5052368;28;20035;-71
2022/12/09 06:59:55;;;;;;;21.60;13.15;;;-0.30;99.90;;;;;;5051406;28;20391;-71
2022/12/09 07:02:21;;;;;;;20.45;13.60;;;-0.30;99.90;;;;;;5051377;28;21439;-71
2022/12/09 07:04:54;;;;;;;20.80;13.77;;;-0.30;99.90;;;;;;5042352;28;20115;-71
2022/12/09 07:07:20;;;;;;;26.92;15.93;;;-0.30;99.90;;;;;;5054769;28;20386;-71
2022/12/09 07:09:46;;;;;;;25.40;15.80;;;-0.30;99.90;;;;;;5059064;28;20032;-71
2022/12/09 07:12:12;;;;;;;27.45;15.98;;;-0.20;99.90;;;;;;5060974;28;20024;-71
2022/12/09 07:14:38;;;;;;;26.65;16.33;;;-0.20;99.90;;;;;;5055152;28;20024;-71
2022/12/09 07:17:03;;;;;;;28.90;16.88;;;-0.10;99.90;;;;;;5057466;28;20373;-71
2022/12/09 07:19:30;;;;;;;27.77;17.20;;;-0.10;99.90;;;;;;5060058;28;20111;-71
2022/12/09 07:21:56;;;;;;;30.10;18.25;;;-0.10;99.90;;;;;;5059137;28;20028;-71
2022/12/09 07:24:23;;;;;;;26.15;16.88;;;0.00;99.90;;;;;;5058046;28;20172;-71
2022/12/09 07:26:49;;;;;;;28.08;16.92;;;0.00;99.90;;;;;;5056344;28;20343;-71
2022/12/09 07:29:15;;;;;;;24.42;15.25;;;0.10;99.90;;;;;;5056007;28;20025;-71
2022/12/09 07:31:42;;;;;;;25.88;15.80;;;0.10;99.90;;;;;;5056732;28;20033;-71
2022/12/09 07:34:09;;;;;;;25.80;15.55;;;0.10;99.90;;;;;;5049101;28;20391;-71
2022/12/09 07:36:36;;;;;;;29.35;17.40;;;0.10;99.90;;;;;;5047453;28;20033;-71
2022/12/09 07:39:15;;;;;;;28.42;16.27;;;0.20;99.90;;;;;;5046160;28;21301;-71
2022/12/09 07:41:42;;;;;;;29.20;17.35;;;;;;;;;;5043904;28;20461;-72
2022/12/09 07:44:09;;;;;;;33.90;20.00;;;0.20;99.90;;;;;;5058758;28;20089;-72
2022/12/09 07:46:36;;;;;;;32.13;18.77;;;0.20;99.90;;;;;;5075018;28;20032;-71
2022/12/09 07:49:03;;;;;;;34.03;19.00;;;0.20;99.90;;;;;;5075571;28;20024;-71
2022/12/09 07:51:29;;;;;;;35.58;20.73;;;0.30;99.90;;;;;;5083004;28;20059;-71
2022/12/09 07:53:56;;;;;;;34.47;19.70;;;0.30;99.90;;;;;;5072934;28;20456;-71
2022/12/09 07:56:23;;;;;;;36.97;19.70;;;0.30;99.90;;;;;;5074746;28;20039;-71
2022/12/09 07:58:52;;;;;;;38.05;20.98;;;0.40;99.90;;;;;;5077339;28;20101;-71
2022/12/09 08:01:20;;;;;;;37.15;20.88;;;0.50;99.90;;;;;;5075209;28;20312;-71
2022/12/09 08:03:47;;;;;;;40.95;22.45;;;0.50;99.90;;;;;;5076369;28;20036;-72
2022/12/09 08:06:17;;;;;;;35.10;20.90;;;0.60;99.90;;;;;;5075423;28;20032;-72
2022/12/09 08:08:43;;;;;;;41.72;21.75;;;0.80;99.90;;;;;;5083153;28;20029;-72
2022/12/09 08:11:11;;;;;;;35.35;20.73;;;1.00;99.90;;;;;;5078497;28;20517;-71
2022/12/09 08:13:38;;;;;;;36.50;20.40;;;1.00;99.90;;;;;;5069515;28;20043;-71
2022/12/09 08:16:05;;;;;;;37.72;19.95;;;1.10;99.90;;;;;;5082191;28;20553;-71
2022/12/09 08:18:34;;;;;;;37.42;21.92;;;1.20;99.90;;;;;;5082706;28;20028;-71
2022/12/09 08:21:04;;;;;;;32.38;18.88;;;1.20;99.90;;;;;;5076442;28;20025;-71
2022/12/09 08:23:29;;;;;;;39.35;21.77;;;1.10;99.90;;;;;;5083712;28;20117;-71
2022/12/09 08:25:55;;;;;;;37.53;20.63;;;1.10;99.90;;;;;;5080417;28;20129;-71
2022/12/09 08:28:22;;;;;;;36.60;21.90;;;1.10;99.90;;;;;;5087533;28;20029;-71
2022/12/09 08:30:48;;;;;;;34.75;19.67;;;1.20;99.90;;;;;;5081315;28;20027;-71
2022/12/09 08:33:14;;;;;;;32.13;18.35;;;1.10;99.90;;;;;;5071947;28;20037;-72
2022/12/09 08:35:40;;;;;;;32.22;18.90;;;1.00;99.90;;;;;;5086711;28;20036;-71
2022/12/09 08:38:06;;;;;;;36.10;20.20;;;0.90;99.90;;;;;;5084471;28;20034;-71
2022/12/09 08:40:32;;;;;;;35.60;20.58;;;0.90;99.90;;;;;;5080284;28;20107;-71
2022/12/09 08:42:57;;;;;;;36.00;20.20;;;0.80;99.90;;;;;;5083970;28;20081;-71
2022/12/09 08:45:23;;;;;;;35.78;20.27;;;0.80;99.90;;;;;;5069963;28;20119;-71
2022/12/09 08:47:50;;;;;;;40.38;21.33;;;0.80;99.90;;;;;;5080434;28;20393;-71
2022/12/09 08:50:16;;;;;;;41.22;23.08;;;0.90;99.90;;;;;;5086142;28;20012;-71
2022/12/09 08:52:41;;;;;;;36.45;22.08;;;1.00;99.90;;;;;;5076286;28;20537;-71
2022/12/09 08:55:08;;;;;;;36.75;20.85;;;1.10;99.90;;;;;;5080965;28;20039;-72
2022/12/09 08:57:34;;;;;;;39.72;22.33;;;1.20;99.90;;;;;;5084849;28;20028;-72
2022/12/09 08:59:59;;;;;;;35.97;20.13;;;1.30;99.90;;;;;;5081982;28;20036;-71
2022/12/09 09:02:25;;;;;;;35.15;20.30;;;1.40;99.90;;;;;;5078206;28;21113;-71
2022/12/09 09:04:51;;;;;;;32.67;19.45;;;1.40;99.90;;;;;;5081476;28;20493;-71
2022/12/09 09:07:16;;;;;;;29.95;18.25;;;1.50;99.90;;;;;;5085370;28;20024;-73
2022/12/09 09:09:42;;;;;;;26.98;17.52;;;1.40;99.90;;;;;;5086869;28;20393;-71
2022/12/09 09:12:08;;;;;;;30.23;18.55;;;1.30;99.90;;;;;;5077637;28;20032;-71
2022/12/09 09:14:34;;;;;;;32.08;18.13;;;1.20;99.90;;;;;;5075100;28;20016;-74
2022/12/09 09:16:59;;;;;;;29.38;18.25;;;1.20;99.90;;;;;;5079045;28;20027;-72
2022/12/09 09:19:25;;;;;;;36.20;19.35;;;1.20;99.90;;;;;;5082832;28;20752;-72
2022/12/09 09:21:52;;;;;;;31.52;19.13;;;1.20;99.90;;;;;;5082170;28;20050;-72
2022/12/09 09:24:21;;;;;;;33.05;19.80;;;1.20;99.90;;;;;;5081602;28;20496;-72
2022/12/09 09:26:47;;;;;;;34.47;20.52;;;1.20;99.90;;;;;;5082021;28;20108;-71
2022/12/09 09:29:14;;;;;;;35.13;19.90;;;1.20;99.90;;;;;;5082032;28;20116;-72
2022/12/09 09:31:40;;;;;;;32.33;19.65;;;1.30;99.90;;;;;;5071670;28;20104;-72
2022/12/09 09:34:06;;;;;;;32.13;20.08;;;1.30;99.90;;;;;;5070120;28;20157;-71
2022/12/09 09:36:32;;;;;;;37.47;20.88;;;1.40;99.90;;;;;;5078112;28;20055;-71
2022/12/09 09:38:58;;;;;;;33.00;19.88;;;1.50;99.90;;;;;;5079740;28;20559;-71
2022/12/09 09:41:42;;;;;;;28.02;17.48;;;1.50;99.90;;;;;;5080320;28;20089;-71
2022/12/09 09:44:16;;;;;;;27.70;16.52;;;1.50;99.90;;;;;;5077110;28;20029;-73
2022/12/09 09:46:44;;;;;;;26.58;15.85;;;1.50;99.90;;;;;;5080955;28;20105;-72
2022/12/09 09:49:25;;;;;;;30.90;18.98;;;1.30;99.90;;;;;;5073945;28;20063;-73
2022/12/09 09:51:51;;;;;;;30.77;18.52;;;1.40;99.90;;;;;;5082283;28;20120;-71
2022/12/09 09:54:16;;;;;;;32.30;19.60;;;1.40;99.90;;;;;;5078877;28;20442;-72
2022/12/09 09:56:59;;;;;;;32.80;18.75;;;1.50;99.90;;;;;;5079472;28;20056;-71
2022/12/09 09:59:41;;;;;;;34.90;19.73;;;1.60;99.90;;;;;;5086047;28;20054;-71
2022/12/09 10:02:38;;;;;;;31.38;18.90;;;1.60;99.90;;;;;;5083262;28;20447;-72
2022/12/09 10:05:23;;;;;;;31.08;17.80;;;1.70;99.90;;;;;;5060477;28;20048;-71
2022/12/09 10:07:55;;;;;;;28.08;17.50;;;1.60;99.90;;;;;;5075181;28;20032;-71
2022/12/09 10:10:26;;;;;;;19.23;11.77;;;1.50;99.90;;;;;;5075269;28;20032;-71
2022/12/09 10:12:58;;;;;;;25.35;14.25;;;1.40;99.90;;;;;;5077572;28;20469;-72
2022/12/09 10:15:35;;;;;;;20.40;12.68;;;1.40;99.90;;;;;;5083644;28;20105;-71
2022/12/09 10:18:15;;;;;;;22.75;13.55;;;1.40;99.90;;;;;;5084624;28;20088;-71
2022/12/09 10:20:42;;;;;;;23.58;13.85;;;1.40;99.90;;;;;;5082189;28;20024;-71
2022/12/09 10:23:15;;;;;;;21.40;12.45;;;1.50;99.90;;;;;;5075259;28;20030;-72
2022/12/09 10:25:49;;;;;;;21.00;11.93;;;1.50;99.90;;;;;;5086164;28;20020;-72
2022/12/09 10:28:22;;;;;;;18.73;11.77;;;1.60;99.90;;;;;;5082207;28;20513;-72
2022/12/09 10:30:49;;;;;;;20.17;12.63;;;1.60;99.90;;;;;;5080061;28;20077;-72
2022/12/09 10:33:19;;;;;;;20.42;12.57;;;1.60;99.90;;;;;;5070612;28;20515;-71
2022/12/09 10:35:45;;;;;;;19.13;12.43;;;1.50;99.90;;;;;;5077055;28;20073;-71
2022/12/09 10:38:15;;;;;;;20.95;13.52;;;1.40;99.90;;;;;;5080056;28;20013;-71
2022/12/09 10:40:47;;;;;;;19.48;12.75;;;1.40;99.90;;;;;;5079918;28;20103;-71
2022/12/09 10:43:37;;;;;;;22.35;13.93;;;1.40;99.90;;;;;;5076049;28;20024;-71
2022/12/09 10:46:18;;;;;;;19.23;12.50;;;1.50;99.90;;;;;;5075687;28;20040;-72
2022/12/09 10:48:47;;;;;;;20.77;12.85;;;1.60;99.90;;;;;;5079220;28;20501;-71
2022/12/09 10:51:15;;;;;;;21.75;13.82;;;1.60;99.90;;;;;;5080753;28;20410;-72
2022/12/09 10:53:54;;;;;;;20.30;12.80;;;1.70;99.90;;;;;;5076422;28;20567;-71
2022/12/09 10:56:26;;;;;;;21.75;13.13;;;1.80;99.90;;;;;;5078165;28;20085;-71
2022/12/09 10:59:17;;;;;;;23.75;14.05;;;1.90;99.90;;;;;;5075401;28;20032;-71
2022/12/09 11:01:50;;;;;;;23.73;13.18;;;2.00;99.90;;;;;;5071190;28;20119;-71
2022/12/09 11:04:24;;;;;;;23.80;13.95;;;2.10;99.90;;;;;;5076748;28;20048;-71
2022/12/09 11:06:52;;;;;;;23.58;14.32;;;2.10;99.90;;;;;;5072738;28;20020;-71
2022/12/09 11:09:26;;;;;;;21.10;13.52;;;2.20;99.90;;;;;;5078836;28;20044;-71
2022/12/09 11:11:52;;;;;;;24.08;14.50;;;2.20;99.90;;;;;;5077552;28;20043;-71
2022/12/09 11:14:49;;;;;;;22.35;13.20;;;2.20;99.90;;;;;;5075388;28;20383;-71
2022/12/09 11:17:19;;;;;;;23.20;14.70;;;2.20;99.90;;;;;;5075074;28;20032;-72
2022/12/09 11:19:52;;;;;;;25.40;15.00;;;2.20;99.90;;;;;;5079304;28;20047;-71
2022/12/09 11:22:27;;;;;;;24.83;14.70;;;2.20;99.90;;;;;;5081046;28;20032;-71
2022/12/09 11:24:55;;;;;;;23.77;14.93;;;2.20;99.90;;;;;;5076900;28;20028;-72
2022/12/09 11:27:32;;;;;;;25.42;16.30;;;2.30;99.90;;;;;;5076745;28;20032;-71
2022/12/09 11:30:13;;;;;;;26.42;16.58;;;2.30;99.90;;;;;;5082354;28;20036;-72
2022/12/09 11:32:54;;;;;;;29.60;16.77;;;2.40;99.90;;;;;;5073212;28;20463;-71
2022/12/09 11:35:35;;;;;;;25.55;16.33;;;2.50;99.90;;;;;;4728329;28;10000987;-71
2022/12/09 11:38:32;;;;;;;27.02;15.98;;;2.50;99.90;;;;;;5078516;28;20177;-71
2022/12/09 11:41:05;;;;;;;32.92;18.20;;;2.50;99.90;;;;;;5062849;28;20516;-71
2022/12/09 11:43:41;;;;;;;31.35;17.63;;;2.50;99.90;;;;;;5065647;28;20028;-71
2022/12/09 11:46:13;;;;;;;29.67;17.08;;;2.50;99.90;;;;;;5075807;28;20062;-72
2022/12/09 11:49:11;;;;;;;32.25;19.33;;;2.50;99.90;;;;;;5076949;28;20686;-71
2022/12/09 11:51:42;;;;;;;30.60;18.63;;;2.50;99.90;;;;;;5075319;28;20039;-71
2022/12/09 11:54:17;;;;;;;28.92;16.98;;;2.60;99.90;;;;;;5073217;28;20044;-71
2022/12/09 11:56:44;;;;;;;26.90;15.15;;;2.70;99.90;;;;;;5066290;28;20119;-72
2022/12/09 11:59:23;;;;;;;25.25;16.10;;;2.80;99.90;;;;;;5071268;28;20374;-71
2022/12/09 12:02:12;;;;;;;27.40;16.52;;;2.80;99.90;;;;;;5068152;28;20132;-71
2022/12/09 12:05:22;;;;;;;31.08;17.50;;;2.90;99.90;;;;;;5069100;28;20036;-72
2022/12/09 12:08:09;;;;;;;34.30;19.15;;;3.00;99.90;;;;;;5038607;28;20639;-71
2022/12/09 12:10:39;;;;;;;33.05;18.92;;;3.00;99.90;;;;;;5068275;28;20393;-72
2022/12/09 12:13:25;;;;;;;34.30;19.70;;;3.10;99.90;;;;;;5061061;28;20044;-72
2022/12/09 12:16:12;;;;;;;33.05;19.77;;;3.10;99.90;;;;;;5069194;28;20263;-72
2022/12/09 12:18:50;;;;;;;36.00;20.38;;;3.10;99.90;;;;;;5061040;28;20036;-71
2022/12/09 12:21:34;;;;;;;36.22;21.17;;;3.10;99.90;;;;;;5066165;28;20677;-70
2022/12/09 12:24:19;;;;;;;34.55;21.05;;;3.10;99.90;;;;;;5061635;28;20035;-70
2022/12/09 12:27:14;;;;;;;34.95;20.77;;;3.00;99.90;;;;;;5072892;28;20075;-71
2022/12/09 12:29:39;;;;;;;29.58;18.83;;;2.90;99.90;;;;;;5071621;28;20707;-71
2022/12/09 12:32:43;;;;;;;32.92;20.58;;;2.90;99.90;;;;;;5082268;28;20035;-70
2022/12/09 12:35:15;;;;;;;35.25;18.55;;;2.90;99.90;;;;;;5060733;28;20032;-71
2022/12/09 12:38:03;;;;;;;29.50;18.35;;;2.90;99.90;;;;;;5077734;28;20501;-71
2022/12/09 12:40:36;;;;;;;29.83;18.35;;;2.90;99.90;;;;;;5068067;28;20013;-71
2022/12/09 12:46:16;;;;;;;26.20;16.80;;;2.80;99.90;;;;;;5064508;28;20090;-71
2022/12/09 12:49:39;;;;;;;26.10;15.85;;;2.70;99.90;;;;;;5067403;28;20412;-71
2022/12/09 12:52:28;;;;;;;23.10;15.63;;;2.70;99.90;;;;;;5001802;28;20407;-70
2022/12/09 12:55:31;;;;;;;25.38;16.42;;;2.70;99.90;;;;;;5001052;28;21030;-71